LFOJ 181530Z AUTO 33009KT CAVOK 28/14 Q1013 NOSIG

ElémentsDécodage
LFOJ Station météo située sur l'aérodrome de ORLEANS Bricy
181530Z émis le 18 du mois à 15h30 UTC
AUTO Bulletin édité par un automate
33009KT vent du 330°, 09 noeuds
CAVOK Ceiling And Visibility OK
- Visibilité de 10 Km ou plus
- Pas de nuage au-dessous de 1500m ou au-dessous de l'altitude minimale du secteur la plus élevée (si>1500m) et absence de CB
- pas de temps présent significatif
28/14 température 28°C, point de rosée 14°C
 soit une humidité relative de 42%
Q1013 la pression au niveau de la mer (QNH) est de 1013 hPa
NOSIG Pas de changement significatif prévu au cours des deux heures suivant l'heure de l'observation